Thetford, Vermont
Current Conditions -  °F | °C
As of 5:53 PM on Thursday 20 Nov 2014 (Local Time) from KLEB Reporting Station
Few Clouds Few Clouds  
Wind Chill: 23°   Ceiling: Unl
Heat Index: 32°   Visibility: 10mi
Dew Point: 10°   Wind: 13mph
Humidity: 40%   Direction: 270°W
Pressure: 29.82"   Gusts: NA
Location:  43.82°N, 72.23°W
Report Text: KLEB 202253Z 27011KT 10SM FEW095 00/M12 A2982 RMK AO2 SLP106 T00001122
Loading
Personal Weather Stations






























Interactive Weather Map New forecast layout! Learn more

10-Day Weather Forecast

Advertisements
Track Severe Weather on mobile